createdAt,value
2023-01-26T00:00:17.159Z,-0.60
2023-01-26T00:04:21.300Z,-0.50
2023-01-26T00:08:24.075Z,-0.50
2023-01-26T00:12:27.019Z,-0.50
2023-01-26T00:16:29.907Z,-0.60
2023-01-26T00:20:34.148Z,-0.50
2023-01-26T00:24:36.945Z,-0.50
2023-01-26T00:28:40.794Z,-0.50
2023-01-26T00:32:43.600Z,-0.50
2023-01-26T00:36:47.757Z,-0.50
2023-01-26T00:40:50.540Z,-0.50
2023-01-26T00:44:53.372Z,-0.50
2023-01-26T00:48:56.310Z,-0.50
2023-01-26T00:53:00.538Z,-0.50
2023-01-26T00:57:03.314Z,-0.50
2023-01-26T01:01:06.300Z,-0.50
2023-01-26T01:05:09.704Z,-0.50
2023-01-26T01:09:13.896Z,-0.50
2023-01-26T01:13:16.689Z,-0.50
2023-01-26T01:17:19.487Z,-0.50
2023-01-26T01:21:22.650Z,-0.50
2023-01-26T01:25:26.804Z,-0.40
2023-01-26T01:29:29.609Z,-0.40
2023-01-26T01:33:32.552Z,-0.40
2023-01-26T01:37:36.803Z,-0.40
2023-01-26T01:41:41.057Z,-0.40
2023-01-26T01:45:44.512Z,-0.40
2023-01-26T01:49:48.975Z,-0.30
2023-01-26T01:53:52.800Z,-0.30
2023-01-26T01:58:00.333Z,-0.30
2023-01-26T02:02:03.411Z,-0.30
2023-01-26T02:06:08.946Z,-0.20
2023-01-26T02:10:20.568Z,-0.20
2023-01-26T02:14:25.645Z,-0.20
2023-01-26T02:18:28.910Z,-0.10
2023-01-26T02:22:36.416Z,-0.10
2023-01-26T02:26:40.649Z,-0.10
2023-01-26T02:30:43.491Z,-0.10
2023-01-26T02:34:46.329Z,-0.10
2023-01-26T02:38:52.440Z,-0.10
2023-01-26T02:42:56.605Z,0.00
2023-01-26T02:46:59.388Z,0.00
2023-01-26T02:51:02.175Z,0.00
2023-01-26T02:55:24.998Z,0.00
2023-01-26T02:59:29.257Z,0.00
2023-01-26T03:03:42.520Z,0.00
2023-01-26T03:07:45.345Z,0.00
2023-01-26T03:11:48.136Z,0.00
2023-01-26T03:15:54.663Z,0.00
2023-01-26T03:20:15.089Z,0.10
2023-01-26T03:24:35.774Z,0.10
2023-01-26T03:28:38.576Z,0.10
2023-01-26T03:32:42.954Z,0.10
2023-01-26T03:36:45.767Z,0.10
2023-01-26T03:41:06.226Z,0.10
2023-01-26T03:45:26.765Z,0.10
2023-01-26T03:49:48.161Z,0.10
2023-01-26T03:54:08.272Z,0.20
2023-01-26T03:58:11.086Z,0.20
2023-01-26T04:02:31.385Z,0.20
2023-01-26T04:06:53.731Z,0.20
2023-01-26T04:10:56.748Z,0.20
2023-01-26T04:15:17.212Z,0.20
2023-01-26T04:19:37.486Z,0.20
2023-01-26T04:23:41.733Z,0.20
2023-01-26T04:27:46.101Z,0.20
2023-01-26T04:31:48.944Z,0.10
2023-01-26T04:35:51.760Z,0.10
2023-01-26T04:39:55.923Z,0.10
2023-01-26T04:43:59.030Z,0.10
2023-01-26T04:48:01.816Z,0.10
2023-01-26T04:52:04.623Z,0.10
2023-01-26T04:56:09.979Z,0.10
2023-01-26T05:00:14.244Z,0.10
2023-01-26T05:04:17.200Z,0.10
2023-01-26T05:08:20.608Z,0.10
2023-01-26T05:12:38.323Z,0.10
2023-01-26T05:16:41.271Z,0.10
2023-01-26T05:20:44.068Z,0.10
2023-01-26T05:24:46.892Z,0.10
2023-01-26T05:28:51.052Z,0.10
2023-01-26T05:32:53.849Z,0.10
2023-01-26T05:36:56.615Z,0.10
2023-01-26T05:40:59.431Z,0.10
2023-01-26T05:45:03.621Z,0.10
2023-01-26T05:49:06.514Z,0.10
2023-01-26T05:53:09.370Z,0.10
2023-01-26T05:57:12.408Z,0.20
2023-01-26T06:01:16.542Z,0.20
2023-01-26T06:05:19.565Z,0.10
2023-01-26T06:09:22.367Z,0.20
2023-01-26T06:13:25.176Z,0.20
2023-01-26T06:17:29.517Z,0.20
2023-01-26T06:21:32.357Z,0.20
2023-01-26T06:25:35.152Z,0.20
2023-01-26T06:29:37.923Z,0.20
2023-01-26T06:33:42.827Z,0.20
2023-01-26T06:37:45.966Z,0.20
2023-01-26T06:41:48.868Z,0.20
2023-01-26T06:45:51.660Z,0.20
2023-01-26T06:49:55.832Z,0.20
2023-01-26T06:53:59.292Z,0.20
2023-01-26T06:58:02.175Z,0.20
2023-01-26T07:02:05.550Z,0.30
2023-01-26T07:06:12.251Z,0.30
2023-01-26T07:10:15.052Z,0.30
2023-01-26T07:14:17.830Z,0.30
2023-01-26T07:18:20.594Z,0.30
2023-01-26T07:22:24.788Z,0.30
2023-01-26T07:26:27.592Z,0.30
2023-01-26T07:30:30.400Z,0.30
2023-01-26T07:34:33.228Z,0.40
2023-01-26T07:38:37.972Z,0.40
2023-01-26T07:42:40.844Z,0.40
2023-01-26T07:46:45.584Z,0.40
2023-01-26T07:50:48.787Z,0.40
2023-01-26T07:54:52.927Z,0.40
2023-01-26T07:58:56.047Z,0.40
2023-01-26T08:02:58.849Z,0.50
2023-01-26T08:07:01.940Z,0.50
2023-01-26T08:11:06.536Z,0.50
2023-01-26T08:15:10.636Z,0.50
2023-01-26T08:19:13.444Z,0.50
2023-01-26T08:23:16.228Z,0.50
2023-01-26T08:27:20.415Z,0.60
2023-01-26T08:31:24.899Z,0.60
2023-01-26T08:35:27.861Z,0.60
2023-01-26T08:39:30.654Z,0.60
2023-01-26T08:43:34.818Z,0.60
2023-01-26T08:47:37.644Z,0.60
2023-01-26T08:51:40.468Z,0.70
2023-01-26T08:55:43.268Z,0.70
2023-01-26T08:59:47.386Z,0.70
2023-01-26T09:03:51.296Z,0.80
2023-01-26T09:07:54.157Z,0.80
2023-01-26T09:11:57.041Z,0.80
2023-01-26T09:16:04.007Z,0.80
2023-01-26T09:20:08.303Z,0.80
2023-01-26T09:24:11.316Z,0.80
2023-01-26T09:28:14.107Z,0.90
2023-01-26T09:32:18.261Z,0.90
2023-01-26T09:36:21.238Z,0.90
2023-01-26T09:40:25.759Z,0.90
2023-01-26T09:44:29.607Z,0.90
2023-01-26T09:48:38.831Z,1.00
2023-01-26T09:52:48.766Z,1.00
2023-01-26T09:56:51.755Z,1.00
2023-01-26T10:00:58.614Z,1.00
2023-01-26T10:05:05.321Z,1.00
2023-01-26T10:09:13.316Z,1.10
2023-01-26T10:13:17.413Z,1.10
2023-01-26T10:17:22.350Z,1.10
2023-01-26T10:21:28.187Z,1.10
2023-01-26T10:25:32.338Z,1.10
2023-01-26T10:29:35.107Z,1.10
2023-01-26T10:33:38.743Z,1.10
2023-01-26T10:37:42.916Z,1.20
2023-01-26T10:41:57.356Z,1.20
2023-01-26T10:46:00.298Z,1.20
2023-01-26T10:50:20.364Z,1.20
2023-01-26T10:54:25.526Z,1.30
2023-01-26T10:58:48.923Z,1.30
2023-01-26T11:02:53.332Z,1.30
2023-01-26T11:06:56.205Z,1.30
2023-01-26T11:11:00.346Z,1.40
2023-01-26T11:15:04.176Z,1.40
2023-01-26T11:19:09.444Z,1.40
2023-01-26T11:23:16.035Z,1.40
2023-01-26T11:27:26.694Z,1.40
2023-01-26T11:31:37.075Z,1.40
2023-01-26T11:35:48.142Z,1.50
2023-01-26T11:39:58.504Z,1.50
2023-01-26T11:44:13.103Z,1.50
2023-01-26T11:48:22.373Z,1.50
2023-01-26T11:52:30.855Z,1.60
2023-01-26T11:56:38.861Z,1.60
2023-01-26T12:00:44.743Z,1.60
2023-01-26T12:04:48.115Z,1.70
2023-01-26T12:08:52.710Z,1.70
2023-01-26T12:12:59.780Z,1.80
2023-01-26T12:17:18.057Z,1.80
2023-01-26T12:21:21.476Z,1.80
2023-01-26T12:25:28.086Z,1.90
2023-01-26T12:29:35.305Z,1.90
2023-01-26T12:33:39.598Z,1.90
2023-01-26T12:37:48.135Z,1.90
2023-01-26T12:42:03.279Z,2.00
2023-01-26T12:46:07.040Z,2.00
2023-01-26T12:50:15.088Z,2.00
2023-01-26T12:54:21.815Z,2.00
2023-01-26T12:58:26.556Z,2.10
2023-01-26T13:02:30.847Z,2.10
2023-01-26T13:06:35.015Z,2.10
2023-01-26T13:10:47.388Z,2.10
2023-01-26T13:15:00.418Z,2.20
2023-01-26T13:19:03.591Z,2.20
2023-01-26T13:23:28.834Z,2.20
2023-01-26T13:27:34.881Z,2.30
2023-01-26T13:31:37.712Z,2.30
2023-01-26T13:35:40.861Z,2.30
2023-01-26T13:39:45.922Z,2.30
2023-01-26T13:43:53.559Z,2.30
2023-01-26T13:47:57.186Z,2.40
2023-01-26T13:51:59.984Z,2.40
2023-01-26T13:56:03.830Z,2.40
2023-01-26T14:00:13.585Z,2.40
2023-01-26T14:04:20.037Z,2.40
2023-01-26T14:08:24.237Z,2.40
2023-01-26T14:12:29.221Z,2.40
2023-01-26T14:16:35.084Z,2.50
2023-01-26T14:20:39.423Z,2.50
2023-01-26T14:24:43.176Z,2.50
2023-01-26T14:28:46.742Z,2.50
2023-01-26T14:32:55.847Z,2.50
2023-01-26T14:37:08.904Z,2.50
2023-01-26T14:41:13.815Z,2.50
2023-01-26T14:45:16.705Z,2.60
2023-01-26T14:49:22.755Z,2.60
2023-01-26T14:53:25.960Z,2.60
2023-01-26T14:57:29.274Z,2.60
2023-01-26T15:01:32.164Z,2.60
2023-01-26T15:05:37.697Z,2.60
2023-01-26T15:09:40.489Z,2.60
2023-01-26T15:13:44.900Z,2.60
2023-01-26T15:18:00.928Z,2.60
2023-01-26T15:22:05.176Z,2.60
2023-01-26T15:26:08.562Z,2.70
2023-01-26T15:30:17.323Z,2.70
2023-01-26T15:34:33.654Z,2.70
2023-01-26T15:38:37.864Z,2.70
2023-01-26T15:42:41.157Z,2.70
2023-01-26T15:46:44.463Z,2.70
2023-01-26T15:50:47.666Z,2.70
2023-01-26T15:54:52.572Z,2.80
2023-01-26T15:58:55.393Z,2.80
2023-01-26T16:02:58.273Z,2.80
2023-01-26T16:07:01.086Z,2.80
2023-01-26T16:11:09.706Z,2.80
2023-01-26T16:15:21.506Z,2.80
2023-01-26T16:19:34.927Z,2.90
2023-01-26T16:23:38.527Z,2.80
2023-01-26T16:27:42.677Z,2.80
2023-01-26T16:31:45.925Z,2.80
2023-01-26T16:35:48.884Z,2.80
2023-01-26T16:39:51.711Z,2.80
2023-01-26T16:43:57.130Z,2.80
2023-01-26T16:48:01.058Z,2.80
2023-01-26T16:52:03.955Z,2.80
2023-01-26T16:56:07.514Z,2.90
2023-01-26T17:00:14.443Z,2.90
2023-01-26T17:04:17.283Z,2.90
2023-01-26T17:08:20.086Z,2.90
2023-01-26T17:12:22.919Z,2.90
2023-01-26T17:16:31.636Z,2.90
2023-01-26T17:20:34.450Z,2.90
2023-01-26T17:24:37.392Z,2.90
2023-01-26T17:28:40.187Z,2.90
2023-01-26T17:32:44.394Z,3.00
2023-01-26T17:36:47.178Z,3.00
2023-01-26T17:40:54.989Z,3.00
2023-01-26T17:44:58.076Z,3.00
2023-01-26T17:49:02.234Z,3.00
2023-01-26T17:53:06.786Z,3.00
2023-01-26T17:57:09.926Z,3.00
2023-01-26T18:01:12.734Z,3.10
2023-01-26T18:05:17.128Z,3.10
2023-01-26T18:09:19.930Z,3.10
2023-01-26T18:13:22.694Z,3.10
2023-01-26T18:17:26.011Z,3.10
2023-01-26T18:21:30.455Z,3.10
2023-01-26T18:25:33.873Z,3.10
2023-01-26T18:29:36.683Z,3.20
2023-01-26T18:33:39.501Z,3.20
2023-01-26T18:37:43.700Z,3.20
2023-01-26T18:41:46.480Z,3.10
2023-01-26T18:45:49.308Z,3.20
2023-01-26T18:49:52.487Z,3.20
2023-01-26T18:53:56.678Z,3.10
2023-01-26T18:57:59.477Z,3.20
2023-01-26T19:02:03.227Z,3.20
2023-01-26T19:06:06.403Z,3.10
2023-01-26T19:10:11.504Z,3.10
2023-01-26T19:14:15.315Z,3.10
2023-01-26T19:18:18.378Z,3.10
2023-01-26T19:22:21.663Z,3.10
2023-01-26T19:26:27.883Z,3.20
2023-01-26T19:30:30.824Z,3.20
2023-01-26T19:34:35.035Z,3.20
2023-01-26T19:38:39.370Z,3.20
2023-01-26T19:42:43.618Z,3.10
2023-01-26T19:46:47.322Z,3.20
2023-01-26T19:50:57.901Z,3.10
2023-01-26T19:55:00.746Z,3.20
2023-01-26T19:59:06.652Z,3.20
2023-01-26T20:03:10.157Z,3.20
2023-01-26T20:07:13.021Z,3.20
2023-01-26T20:11:16.061Z,3.20
2023-01-26T20:15:20.299Z,3.20
2023-01-26T20:19:23.149Z,3.20
2023-01-26T20:23:25.989Z,3.20
2023-01-26T20:27:29.672Z,3.20
2023-01-26T20:31:34.314Z,3.20
2023-01-26T20:35:39.551Z,3.20
2023-01-26T20:39:42.365Z,3.20
2023-01-26T20:43:58.743Z,3.20
2023-01-26T20:48:03.899Z,3.20
2023-01-26T20:52:07.788Z,3.20
2023-01-26T20:56:11.848Z,3.20
2023-01-26T21:00:15.601Z,3.20
2023-01-26T21:04:19.900Z,3.20
2023-01-26T21:08:22.877Z,3.20
2023-01-26T21:12:25.675Z,3.20
2023-01-26T21:16:29.017Z,3.20
2023-01-26T21:20:33.200Z,3.30
2023-01-26T21:24:36.185Z,3.30
2023-01-26T21:28:39.124Z,3.30
2023-01-26T21:32:41.956Z,3.20
2023-01-26T21:36:46.218Z,3.30
2023-01-26T21:40:49.037Z,3.30
2023-01-26T21:45:09.247Z,3.20
2023-01-26T21:49:13.155Z,3.30
2023-01-26T21:53:17.459Z,3.20
2023-01-26T21:57:37.929Z,3.20
2023-01-26T22:01:41.906Z,3.30
2023-01-26T22:05:52.365Z,3.30
2023-01-26T22:09:56.764Z,3.30
2023-01-26T22:14:00.282Z,3.20
2023-01-26T22:18:03.165Z,3.30
2023-01-26T22:22:06.181Z,3.30
2023-01-26T22:26:12.034Z,3.30
2023-01-26T22:30:15.135Z,3.30
2023-01-26T22:34:18.185Z,3.30
2023-01-26T22:38:20.997Z,3.30
2023-01-26T22:42:25.196Z,3.30
2023-01-26T22:46:28.964Z,3.30
2023-01-26T22:50:31.731Z,3.30
2023-01-26T22:54:34.571Z,3.30
2023-01-26T22:58:47.812Z,3.30
2023-01-26T23:02:58.512Z,3.30
2023-01-26T23:07:01.711Z,3.40
2023-01-26T23:11:05.422Z,3.30
2023-01-26T23:15:10.112Z,3.30
2023-01-26T23:19:12.957Z,3.40
2023-01-26T23:23:15.794Z,3.40
2023-01-26T23:27:18.600Z,3.40
2023-01-26T23:31:22.778Z,3.40
2023-01-26T23:35:26.602Z,3.40
2023-01-26T23:39:29.546Z,3.50
2023-01-26T23:43:32.962Z,3.50
2023-01-26T23:47:37.242Z,3.50
2023-01-26T23:51:40.145Z,3.50
2023-01-26T23:55:43.667Z,3.50
2023-01-26T23:59:46.486Z,3.50
